sensor_id;sensor_type;location;lat;lon;timestamp;pressure;altitude;pressure_sealevel;temperature
15680;BMP180;15488;48.114;11.532;2024-02-23T00:01:58;93478.00;;;15.80
15680;BMP180;15488;48.114;11.532;2024-02-23T00:04:27;93479.00;;;15.70
15680;BMP180;15488;48.114;11.532;2024-02-23T00:06:55;93485.00;;;15.60
15680;BMP180;15488;48.114;11.532;2024-02-23T00:09:22;93463.00;;;15.60
15680;BMP180;15488;48.114;11.532;2024-02-23T00:11:50;93478.00;;;15.60
15680;BMP180;15488;48.114;11.532;2024-02-23T00:14:18;93470.00;;;15.50
15680;BMP180;15488;48.114;11.532;2024-02-23T00:16:46;93486.00;;;15.50
15680;BMP180;15488;48.114;11.532;2024-02-23T00:19:15;93486.00;;;15.50
15680;BMP180;15488;48.114;11.532;2024-02-23T00:21:45;93486.00;;;15.50
15680;BMP180;15488;48.114;11.532;2024-02-23T00:24:16;93489.00;;;15.50
15680;BMP180;15488;48.114;11.532;2024-02-23T00:26:44;93488.00;;;15.50
15680;BMP180;15488;48.114;11.532;2024-02-23T00:29:12;93485.00;;;15.50
15680;BMP180;15488;48.114;11.532;2024-02-23T00:31:40;93486.00;;;15.50
15680;BMP180;15488;48.114;11.532;2024-02-23T00:34:08;93490.00;;;15.30
15680;BMP180;15488;48.114;11.532;2024-02-23T00:36:37;93479.00;;;15.40
15680;BMP180;15488;48.114;11.532;2024-02-23T00:39:06;93491.00;;;15.40
15680;BMP180;15488;48.114;11.532;2024-02-23T00:41:34;93481.00;;;15.50
15680;BMP180;15488;48.114;11.532;2024-02-23T00:44:02;93482.00;;;15.50
15680;BMP180;15488;48.114;11.532;2024-02-23T00:46:30;93492.00;;;15.20
15680;BMP180;15488;48.114;11.532;2024-02-23T00:48:58;93495.00;;;15.30
15680;BMP180;15488;48.114;11.532;2024-02-23T00:51:25;93504.00;;;15.20
15680;BMP180;15488;48.114;11.532;2024-02-23T00:53:53;93502.00;;;15.20
15680;BMP180;15488;48.114;11.532;2024-02-23T00:56:22;93510.00;;;15.20
15680;BMP180;15488;48.114;11.532;2024-02-23T00:58:49;93513.00;;;15.10
15680;BMP180;15488;48.114;11.532;2024-02-23T01:01:17;93518.00;;;15.10
15680;BMP180;15488;48.114;11.532;2024-02-23T01:03:44;93515.00;;;15.00
15680;BMP180;15488;48.114;11.532;2024-02-23T01:06:12;93512.00;;;15.10
15680;BMP180;15488;48.114;11.532;2024-02-23T01:08:39;93525.00;;;15.00
15680;BMP180;15488;48.114;11.532;2024-02-23T01:11:07;93527.00;;;15.10
15680;BMP180;15488;48.114;11.532;2024-02-23T01:13:36;93538.00;;;15.00
15680;BMP180;15488;48.114;11.532;2024-02-23T01:16:04;93532.00;;;15.00
15680;BMP180;15488;48.114;11.532;2024-02-23T01:18:32;93523.00;;;14.90
15680;BMP180;15488;48.114;11.532;2024-02-23T01:21:00;93534.00;;;14.90
15680;BMP180;15488;48.114;11.532;2024-02-23T01:23:27;93530.00;;;14.90
15680;BMP180;15488;48.114;11.532;2024-02-23T01:25:55;93545.00;;;14.90
15680;BMP180;15488;48.114;11.532;2024-02-23T01:28:22;93546.00;;;14.90
15680;BMP180;15488;48.114;11.532;2024-02-23T01:30:51;93540.00;;;14.90
15680;BMP180;15488;48.114;11.532;2024-02-23T01:33:19;93539.00;;;14.80
15680;BMP180;15488;48.114;11.532;2024-02-23T01:35:46;93555.00;;;14.80
15680;BMP180;15488;48.114;11.532;2024-02-23T01:38:14;93557.00;;;14.80
15680;BMP180;15488;48.114;11.532;2024-02-23T01:40:47;93555.00;;;14.70
15680;BMP180;15488;48.114;11.532;2024-02-23T01:43:17;93554.00;;;14.70
15680;BMP180;15488;48.114;11.532;2024-02-23T01:45:45;93551.00;;;14.60
15680;BMP180;15488;48.114;11.532;2024-02-23T01:48:14;93545.00;;;14.50
15680;BMP180;15488;48.114;11.532;2024-02-23T01:50:43;93544.00;;;14.60
15680;BMP180;15488;48.114;11.532;2024-02-23T01:53:11;93562.00;;;14.60
15680;BMP180;15488;48.114;11.532;2024-02-23T01:55:41;93562.00;;;14.60
15680;BMP180;15488;48.114;11.532;2024-02-23T01:58:12;93546.00;;;14.60
15680;BMP180;15488;48.114;11.532;2024-02-23T02:00:39;93552.00;;;14.70
15680;BMP180;15488;48.114;11.532;2024-02-23T02:03:07;93549.00;;;14.80
15680;BMP180;15488;48.114;11.532;2024-02-23T02:05:37;93560.00;;;14.70
15680;BMP180;15488;48.114;11.532;2024-02-23T02:08:05;93544.00;;;14.70
15680;BMP180;15488;48.114;11.532;2024-02-23T02:10:33;93551.00;;;14.70
15680;BMP180;15488;48.114;11.532;2024-02-23T02:13:04;93555.00;;;14.70
15680;BMP180;15488;48.114;11.532;2024-02-23T02:15:32;93548.00;;;14.70
15680;BMP180;15488;48.114;11.532;2024-02-23T02:17:59;93559.00;;;14.70
15680;BMP180;15488;48.114;11.532;2024-02-23T02:20:28;93561.00;;;14.70
15680;BMP180;15488;48.114;11.532;2024-02-23T02:23:00;93570.00;;;14.70
15680;BMP180;15488;48.114;11.532;2024-02-23T02:25:28;93564.00;;;14.70
15680;BMP180;15488;48.114;11.532;2024-02-23T02:27:55;93574.00;;;14.60
15680;BMP180;15488;48.114;11.532;2024-02-23T02:30:23;93570.00;;;14.60
15680;BMP180;15488;48.114;11.532;2024-02-23T02:32:50;93580.00;;;14.60
15680;BMP180;15488;48.114;11.532;2024-02-23T02:35:18;93578.00;;;14.60
15680;BMP180;15488;48.114;11.532;2024-02-23T02:37:45;93587.00;;;14.50
15680;BMP180;15488;48.114;11.532;2024-02-23T02:40:15;93585.00;;;14.50
15680;BMP180;15488;48.114;11.532;2024-02-23T02:42:43;93587.00;;;14.60
15680;BMP180;15488;48.114;11.532;2024-02-23T02:45:11;93585.00;;;14.40
15680;BMP180;15488;48.114;11.532;2024-02-23T02:47:39;93592.00;;;14.40
15680;BMP180;15488;48.114;11.532;2024-02-23T02:50:07;93595.00;;;14.50
15680;BMP180;15488;48.114;11.532;2024-02-23T02:52:34;93593.00;;;14.40
15680;BMP180;15488;48.114;11.532;2024-02-23T02:55:02;93598.00;;;14.40
15680;BMP180;15488;48.114;11.532;2024-02-23T02:57:31;93588.00;;;14.50
15680;BMP180;15488;48.114;11.532;2024-02-23T02:59:58;93594.00;;;14.60
15680;BMP180;15488;48.114;11.532;2024-02-23T03:02:26;93593.00;;;14.60
15680;BMP180;15488;48.114;11.532;2024-02-23T03:04:54;93595.00;;;14.70
15680;BMP180;15488;48.114;11.532;2024-02-23T03:07:21;93602.00;;;14.70
15680;BMP180;15488;48.114;11.532;2024-02-23T03:09:49;93594.00;;;14.60
15680;BMP180;15488;48.114;11.532;2024-02-23T03:12:17;93597.00;;;14.60
15680;BMP180;15488;48.114;11.532;2024-02-23T03:14:46;93599.00;;;14.40
15680;BMP180;15488;48.114;11.532;2024-02-23T03:17:14;93599.00;;;14.40
15680;BMP180;15488;48.114;11.532;2024-02-23T03:19:41;93591.00;;;14.50
15680;BMP180;15488;48.114;11.532;2024-02-23T03:22:09;93603.00;;;14.40
15680;BMP180;15488;48.114;11.532;2024-02-23T03:24:36;93606.00;;;14.30
15680;BMP180;15488;48.114;11.532;2024-02-23T03:27:04;93613.00;;;14.40
15680;BMP180;15488;48.114;11.532;2024-02-23T03:29:32;93604.00;;;14.30
15680;BMP180;15488;48.114;11.532;2024-02-23T03:32:01;93604.00;;;14.20
15680;BMP180;15488;48.114;11.532;2024-02-23T03:34:28;93597.00;;;14.20
15680;BMP180;15488;48.114;11.532;2024-02-23T03:36:56;93599.00;;;14.00
15680;BMP180;15488;48.114;11.532;2024-02-23T03:39:24;93602.00;;;14.10
15680;BMP180;15488;48.114;11.532;2024-02-23T03:41:52;93602.00;;;14.10
15680;BMP180;15488;48.114;11.532;2024-02-23T03:44:19;93595.00;;;14.00
15680;BMP180;15488;48.114;11.532;2024-02-23T03:46:47;93612.00;;;14.00
15680;BMP180;15488;48.114;11.532;2024-02-23T03:49:16;93602.00;;;14.00
15680;BMP180;15488;48.114;11.532;2024-02-23T03:51:43;93600.00;;;14.00
15680;BMP180;15488;48.114;11.532;2024-02-23T03:54:11;93611.00;;;14.00
15680;BMP180;15488;48.114;11.532;2024-02-23T03:56:39;93619.00;;;14.00
15680;BMP180;15488;48.114;11.532;2024-02-23T03:59:07;93609.00;;;13.90
15680;BMP180;15488;48.114;11.532;2024-02-23T04:01:37;93609.00;;;13.90
15680;BMP180;15488;48.114;11.532;2024-02-23T04:04:05;93616.00;;;13.90
15680;BMP180;15488;48.114;11.532;2024-02-23T04:06:34;93619.00;;;13.80
15680;BMP180;15488;48.114;11.532;2024-02-23T04:09:02;93611.00;;;13.80
15680;BMP180;15488;48.114;11.532;2024-02-23T04:11:31;93616.00;;;13.90
15680;BMP180;15488;48.114;11.532;2024-02-23T04:13:58;93610.00;;;13.80
15680;BMP180;15488;48.114;11.532;2024-02-23T04:16:27;93614.00;;;13.90
15680;BMP180;15488;48.114;11.532;2024-02-23T04:18:55;93606.00;;;13.80
15680;BMP180;15488;48.114;11.532;2024-02-23T04:21:23;93616.00;;;13.90
15680;BMP180;15488;48.114;11.532;2024-02-23T04:23:52;93610.00;;;13.80
15680;BMP180;15488;48.114;11.532;2024-02-23T04:26:19;93616.00;;;13.90
15680;BMP180;15488;48.114;11.532;2024-02-23T04:28:47;93608.00;;;13.80
15680;BMP180;15488;48.114;11.532;2024-02-23T04:31:14;93614.00;;;13.70
15680;BMP180;15488;48.114;11.532;2024-02-23T04:33:41;93626.00;;;13.70
15680;BMP180;15488;48.114;11.532;2024-02-23T04:36:09;93628.00;;;13.80
15680;BMP180;15488;48.114;11.532;2024-02-23T04:38:36;93608.00;;;13.80
15680;BMP180;15488;48.114;11.532;2024-02-23T04:41:06;93618.00;;;13.80
15680;BMP180;15488;48.114;11.532;2024-02-23T04:43:33;93617.00;;;13.80
15680;BMP180;15488;48.114;11.532;2024-02-23T04:46:01;93612.00;;;13.90
15680;BMP180;15488;48.114;11.532;2024-02-23T04:48:28;93618.00;;;13.90
15680;BMP180;15488;48.114;11.532;2024-02-23T04:50:57;93626.00;;;13.90
15680;BMP180;15488;48.114;11.532;2024-02-23T04:53:24;93622.00;;;13.90
15680;BMP180;15488;48.114;11.532;2024-02-23T04:55:52;93629.00;;;13.80
15680;BMP180;15488;48.114;11.532;2024-02-23T04:58:21;93640.00;;;13.90
15680;BMP180;15488;48.114;11.532;2024-02-23T05:00:49;93636.00;;;13.90
15680;BMP180;15488;48.114;11.532;2024-02-23T05:03:17;93619.00;;;13.90
15680;BMP180;15488;48.114;11.532;2024-02-23T05:05:44;93609.00;;;14.00
15680;BMP180;15488;48.114;11.532;2024-02-23T05:08:12;93605.00;;;14.00
15680;BMP180;15488;48.114;11.532;2024-02-23T05:10:39;93601.00;;;14.10
15680;BMP180;15488;48.114;11.532;2024-02-23T05:13:07;93594.00;;;14.10
15680;BMP180;15488;48.114;11.532;2024-02-23T05:15:36;93596.00;;;14.10
15680;BMP180;15488;48.114;11.532;2024-02-23T05:18:04;93607.00;;;14.10
15680;BMP180;15488;48.114;11.532;2024-02-23T05:20:31;93614.00;;;14.10
15680;BMP180;15488;48.114;11.532;2024-02-23T05:22:59;93617.00;;;14.10
15680;BMP180;15488;48.114;11.532;2024-02-23T05:25:27;93617.00;;;14.10
15680;BMP180;15488;48.114;11.532;2024-02-23T05:27:54;93613.00;;;14.10
15680;BMP180;15488;48.114;11.532;2024-02-23T05:30:22;93606.00;;;14.10
15680;BMP180;15488;48.114;11.532;2024-02-23T05:32:51;93611.00;;;14.10
15680;BMP180;15488;48.114;11.532;2024-02-23T05:35:18;93610.00;;;14.10
15680;BMP180;15488;48.114;11.532;2024-02-23T05:37:46;93614.00;;;14.10
15680;BMP180;15488;48.114;11.532;2024-02-23T05:40:14;93620.00;;;14.10
15680;BMP180;15488;48.114;11.532;2024-02-23T05:42:41;93626.00;;;14.30
15680;BMP180;15488;48.114;11.532;2024-02-23T05:45:09;93624.00;;;14.20
15680;BMP180;15488;48.114;11.532;2024-02-23T05:47:37;93620.00;;;14.20
15680;BMP180;15488;48.114;11.532;2024-02-23T05:50:08;93623.00;;;14.20
15680;BMP180;15488;48.114;11.532;2024-02-23T05:52:36;93629.00;;;14.20
15680;BMP180;15488;48.114;11.532;2024-02-23T05:55:04;93628.00;;;14.20
15680;BMP180;15488;48.114;11.532;2024-02-23T05:57:31;93644.00;;;14.20
15680;BMP180;15488;48.114;11.532;2024-02-23T05:59:59;93643.00;;;14.20
15680;BMP180;15488;48.114;11.532;2024-02-23T06:02:26;93653.00;;;14.20
15680;BMP180;15488;48.114;11.532;2024-02-23T06:04:54;93655.00;;;14.20
15680;BMP180;15488;48.114;11.532;2024-02-23T06:07:23;93651.00;;;14.20
15680;BMP180;15488;48.114;11.532;2024-02-23T06:09:55;93649.00;;;14.20
15680;BMP180;15488;48.114;11.532;2024-02-23T06:12:23;93654.00;;;14.20
15680;BMP180;15488;48.114;11.532;2024-02-23T06:14:51;93656.00;;;14.20
15680;BMP180;15488;48.114;11.532;2024-02-23T06:17:19;93655.00;;;14.20
15680;BMP180;15488;48.114;11.532;2024-02-23T06:19:49;93663.00;;;14.20
15680;BMP180;15488;48.114;11.532;2024-02-23T06:22:19;93669.00;;;14.20
15680;BMP180;15488;48.114;11.532;2024-02-23T06:24:49;93677.00;;;14.20
15680;BMP180;15488;48.114;11.532;2024-02-23T06:27:17;93675.00;;;14.20
15680;BMP180;15488;48.114;11.532;2024-02-23T06:29:44;93673.00;;;14.20
15680;BMP180;15488;48.114;11.532;2024-02-23T06:32:12;93680.00;;;14.30
15680;BMP180;15488;48.114;11.532;2024-02-23T06:34:40;93679.00;;;14.20
15680;BMP180;15488;48.114;11.532;2024-02-23T06:37:08;93682.00;;;14.20
15680;BMP180;15488;48.114;11.532;2024-02-23T06:39:35;93685.00;;;14.30
15680;BMP180;15488;48.114;11.532;2024-02-23T06:42:04;93679.00;;;14.30
15680;BMP180;15488;48.114;11.532;2024-02-23T06:44:32;93682.00;;;14.30
15680;BMP180;15488;48.114;11.532;2024-02-23T06:46:59;93672.00;;;14.30
15680;BMP180;15488;48.114;11.532;2024-02-23T06:49:27;93665.00;;;14.30
15680;BMP180;15488;48.114;11.532;2024-02-23T06:51:54;93671.00;;;14.30
15680;BMP180;15488;48.114;11.532;2024-02-23T06:54:22;93673.00;;;14.30
15680;BMP180;15488;48.114;11.532;2024-02-23T06:56:50;93670.00;;;14.30
15680;BMP180;15488;48.114;11.532;2024-02-23T06:59:19;93671.00;;;14.30
15680;BMP180;15488;48.114;11.532;2024-02-23T07:01:50;93678.00;;;14.30
15680;BMP180;15488;48.114;11.532;2024-02-23T07:04:17;93683.00;;;14.30
15680;BMP180;15488;48.114;11.532;2024-02-23T07:06:45;93688.00;;;14.30
15680;BMP180;15488;48.114;11.532;2024-02-23T07:09:13;93599.00;;;14.30
15680;BMP180;15488;48.114;11.532;2024-02-23T07:11:40;93691.00;;;14.30
15680;BMP180;15488;48.114;11.532;2024-02-23T07:14:09;93690.00;;;14.30
15680;BMP180;15488;48.114;11.532;2024-02-23T07:16:40;93700.00;;;14.30
15680;BMP180;15488;48.114;11.532;2024-02-23T07:19:08;93703.00;;;14.30
15680;BMP180;15488;48.114;11.532;2024-02-23T07:21:36;93709.00;;;14.30
15680;BMP180;15488;48.114;11.532;2024-02-23T07:24:04;93705.00;;;14.30
15680;BMP180;15488;48.114;11.532;2024-02-23T07:26:32;93709.00;;;14.30
15680;BMP180;15488;48.114;11.532;2024-02-23T07:28:59;93715.00;;;14.30
15680;BMP180;15488;48.114;11.532;2024-02-23T07:31:27;93722.00;;;14.30
15680;BMP180;15488;48.114;11.532;2024-02-23T07:33:56;93725.00;;;14.20
15680;BMP180;15488;48.114;11.532;2024-02-23T07:36:23;93731.00;;;14.40
15680;BMP180;15488;48.114;11.532;2024-02-23T07:38:51;93726.00;;;14.30
15680;BMP180;15488;48.114;11.532;2024-02-23T07:41:19;93721.00;;;14.20
15680;BMP180;15488;48.114;11.532;2024-02-23T07:43:46;93718.00;;;14.30
15680;BMP180;15488;48.114;11.532;2024-02-23T07:46:14;93712.00;;;14.20
15680;BMP180;15488;48.114;11.532;2024-02-23T07:48:42;93714.00;;;14.40
15680;BMP180;15488;48.114;11.532;2024-02-23T07:51:11;93712.00;;;14.30
15680;BMP180;15488;48.114;11.532;2024-02-23T07:53:39;93719.00;;;14.30
15680;BMP180;15488;48.114;11.532;2024-02-23T07:56:08;93711.00;;;14.20
15680;BMP180;15488;48.114;11.532;2024-02-23T07:58:36;93709.00;;;14.20
15680;BMP180;15488;48.114;11.532;2024-02-23T08:01:03;93713.00;;;14.20
15680;BMP180;15488;48.114;11.532;2024-02-23T08:03:31;93704.00;;;14.30
15680;BMP180;15488;48.114;11.532;2024-02-23T08:05:58;93698.00;;;14.30
15680;BMP180;15488;48.114;11.532;2024-02-23T08:08:28;93686.00;;;14.20
15680;BMP180;15488;48.114;11.532;2024-02-23T08:10:58;93675.00;;;14.20
15680;BMP180;15488;48.114;11.532;2024-02-23T08:13:26;93681.00;;;14.30
15680;BMP180;15488;48.114;11.532;2024-02-23T08:15:54;93677.00;;;14.30
15680;BMP180;15488;48.114;11.532;2024-02-23T08:18:21;93686.00;;;14.30
15680;BMP180;15488;48.114;11.532;2024-02-23T08:20:49;93709.00;;;14.30
15680;BMP180;15488;48.114;11.532;2024-02-23T08:23:17;93694.00;;;14.30
15680;BMP180;15488;48.114;11.532;2024-02-23T08:25:46;93672.00;;;14.30
15680;BMP180;15488;48.114;11.532;2024-02-23T08:28:14;93672.00;;;14.30
15680;BMP180;15488;48.114;11.532;2024-02-23T08:30:42;93672.00;;;14.30
15680;BMP180;15488;48.114;11.532;2024-02-23T08:33:09;93673.00;;;14.30
15680;BMP180;15488;48.114;11.532;2024-02-23T08:35:37;93680.00;;;14.30
15680;BMP180;15488;48.114;11.532;2024-02-23T08:38:05;93689.00;;;14.30
15680;BMP180;15488;48.114;11.532;2024-02-23T08:40:34;93686.00;;;14.30
15680;BMP180;15488;48.114;11.532;2024-02-23T08:43:03;93687.00;;;14.30
15680;BMP180;15488;48.114;11.532;2024-02-23T08:45:31;93690.00;;;14.40
15680;BMP180;15488;48.114;11.532;2024-02-23T08:47:58;93687.00;;;14.10
15680;BMP180;15488;48.114;11.532;2024-02-23T08:50:26;93685.00;;;14.50
15680;BMP180;15488;48.114;11.532;2024-02-23T08:52:53;93693.00;;;14.40
15680;BMP180;15488;48.114;11.532;2024-02-23T08:55:21;93717.00;;;14.40
15680;BMP180;15488;48.114;11.532;2024-02-23T08:57:49;93724.00;;;14.40
15680;BMP180;15488;48.114;11.532;2024-02-23T09:00:19;93732.00;;;14.40
15680;BMP180;15488;48.114;11.532;2024-02-23T09:02:46;93730.00;;;14.40
15680;BMP180;15488;48.114;11.532;2024-02-23T09:05:16;93733.00;;;14.40
15680;BMP180;15488;48.114;11.532;2024-02-23T09:07:43;93737.00;;;14.40
15680;BMP180;15488;48.114;11.532;2024-02-23T09:10:12;93743.00;;;14.40
15680;BMP180;15488;48.114;11.532;2024-02-23T09:12:39;93749.00;;;14.40
15680;BMP180;15488;48.114;11.532;2024-02-23T09:15:07;93754.00;;;14.50
15680;BMP180;15488;48.114;11.532;2024-02-23T09:17:36;93764.00;;;14.40
15680;BMP180;15488;48.114;11.532;2024-02-23T09:20:04;93771.00;;;14.40
15680;BMP180;15488;48.114;11.532;2024-02-23T09:22:33;93768.00;;;14.40
15680;BMP180;15488;48.114;11.532;2024-02-23T09:25:02;93765.00;;;14.40
15680;BMP180;15488;48.114;11.532;2024-02-23T09:27:31;93763.00;;;14.40
15680;BMP180;15488;48.114;11.532;2024-02-23T09:29:59;93761.00;;;14.40
15680;BMP180;15488;48.114;11.532;2024-02-23T09:32:26;93772.00;;;14.40
15680;BMP180;15488;48.114;11.532;2024-02-23T09:34:55;93774.00;;;14.40
15680;BMP180;15488;48.114;11.532;2024-02-23T09:37:23;93772.00;;;14.50
15680;BMP180;15488;48.114;11.532;2024-02-23T09:39:51;93768.00;;;14.40
15680;BMP180;15488;48.114;11.532;2024-02-23T09:42:20;93765.00;;;14.50
15680;BMP180;15488;48.114;11.532;2024-02-23T09:44:55;93762.00;;;14.40
15680;BMP180;15488;48.114;11.532;2024-02-23T09:47:25;93763.00;;;14.30
15680;BMP180;15488;48.114;11.532;2024-02-23T09:49:55;93761.00;;;14.30
15680;BMP180;15488;48.114;11.532;2024-02-23T09:52:23;93769.00;;;14.30
15680;BMP180;15488;48.114;11.532;2024-02-23T09:54:51;93764.00;;;14.30
15680;BMP180;15488;48.114;11.532;2024-02-23T09:57:19;93762.00;;;14.30
15680;BMP180;15488;48.114;11.532;2024-02-23T09:59:49;93757.00;;;14.20
15680;BMP180;15488;48.114;11.532;2024-02-23T10:02:17;93768.00;;;14.20
15680;BMP180;15488;48.114;11.532;2024-02-23T10:04:45;93770.00;;;14.20
15680;BMP180;15488;48.114;11.532;2024-02-23T10:07:15;93763.00;;;14.20
15680;BMP180;15488;48.114;11.532;2024-02-23T10:09:46;93765.00;;;14.20
15680;BMP180;15488;48.114;11.532;2024-02-23T10:12:15;93770.00;;;14.20
15680;BMP180;15488;48.114;11.532;2024-02-23T10:14:44;93760.00;;;14.20
15680;BMP180;15488;48.114;11.532;2024-02-23T10:17:11;93762.00;;;14.20
15680;BMP180;15488;48.114;11.532;2024-02-23T10:19:39;93763.00;;;14.20
15680;BMP180;15488;48.114;11.532;2024-02-23T10:22:06;93756.00;;;14.20
15680;BMP180;15488;48.114;11.532;2024-02-23T10:24:37;93746.00;;;14.20
15680;BMP180;15488;48.114;11.532;2024-02-23T10:27:05;93757.00;;;14.30
15680;BMP180;15488;48.114;11.532;2024-02-23T10:29:32;93738.00;;;14.30
15680;BMP180;15488;48.114;11.532;2024-02-23T10:32:02;93733.00;;;14.30
15680;BMP180;15488;48.114;11.532;2024-02-23T10:34:30;93732.00;;;14.50
15680;BMP180;15488;48.114;11.532;2024-02-23T10:36:58;93746.00;;;14.40
15680;BMP180;15488;48.114;11.532;2024-02-23T10:39:28;93740.00;;;14.50
15680;BMP180;15488;48.114;11.532;2024-02-23T10:42:02;93742.00;;;14.40
15680;BMP180;15488;48.114;11.532;2024-02-23T10:44:31;93756.00;;;14.60
15680;BMP180;15488;48.114;11.532;2024-02-23T10:46:59;93753.00;;;14.50
15680;BMP180;15488;48.114;11.532;2024-02-23T10:49:28;93749.00;;;14.50
15680;BMP180;15488;48.114;11.532;2024-02-23T10:51:57;93749.00;;;14.50
15680;BMP180;15488;48.114;11.532;2024-02-23T10:54:24;93756.00;;;14.50
15680;BMP180;15488;48.114;11.532;2024-02-23T10:56:53;93763.00;;;14.40
15680;BMP180;15488;48.114;11.532;2024-02-23T10:59:23;93774.00;;;14.40
15680;BMP180;15488;48.114;11.532;2024-02-23T11:01:52;93774.00;;;14.40
15680;BMP180;15488;48.114;11.532;2024-02-23T11:04:23;93768.00;;;14.40
15680;BMP180;15488;48.114;11.532;2024-02-23T11:06:51;93764.00;;;14.40
15680;BMP180;15488;48.114;11.532;2024-02-23T11:09:21;93774.00;;;14.40
15680;BMP180;15488;48.114;11.532;2024-02-23T11:11:54;93773.00;;;14.40
15680;BMP180;15488;48.114;11.532;2024-02-23T11:14:34;93760.00;;;14.30
15680;BMP180;15488;48.114;11.532;2024-02-23T11:17:02;93750.00;;;14.40
15680;BMP180;15488;48.114;11.532;2024-02-23T11:19:34;93758.00;;;14.30
15680;BMP180;15488;48.114;11.532;2024-02-23T11:22:02;93763.00;;;14.40
15680;BMP180;15488;48.114;11.532;2024-02-23T11:24:31;93762.00;;;14.30
15680;BMP180;15488;48.114;11.532;2024-02-23T11:26:59;93754.00;;;14.40
15680;BMP180;15488;48.114;11.532;2024-02-23T11:29:27;93759.00;;;14.40
15680;BMP180;15488;48.114;11.532;2024-02-23T11:31:57;93760.00;;;14.40
15680;BMP180;15488;48.114;11.532;2024-02-23T11:34:28;93763.00;;;14.30
15680;BMP180;15488;48.114;11.532;2024-02-23T11:36:55;93759.00;;;14.20
15680;BMP180;15488;48.114;11.532;2024-02-23T11:39:25;93754.00;;;14.20
15680;BMP180;15488;48.114;11.532;2024-02-23T11:41:53;93754.00;;;14.20
15680;BMP180;15488;48.114;11.532;2024-02-23T11:44:21;93754.00;;;14.20
15680;BMP180;15488;48.114;11.532;2024-02-23T11:46:48;93753.00;;;14.10
15680;BMP180;15488;48.114;11.532;2024-02-23T11:49:17;93768.00;;;14.10
15680;BMP180;15488;48.114;11.532;2024-02-23T11:51:45;93764.00;;;14.00
15680;BMP180;15488;48.114;11.532;2024-02-23T11:54:12;93762.00;;;14.00
15680;BMP180;15488;48.114;11.532;2024-02-23T11:56:41;93765.00;;;14.00
15680;BMP180;15488;48.114;11.532;2024-02-23T11:59:09;93760.00;;;14.00
15680;BMP180;15488;48.114;11.532;2024-02-23T12:01:37;93758.00;;;14.00
15680;BMP180;15488;48.114;11.532;2024-02-23T12:04:04;93755.00;;;13.90
15680;BMP180;15488;48.114;11.532;2024-02-23T12:06:34;93750.00;;;13.90
15680;BMP180;15488;48.114;11.532;2024-02-23T12:09:02;93737.00;;;13.80
15680;BMP180;15488;48.114;11.532;2024-02-23T12:11:30;93743.00;;;13.80
15680;BMP180;15488;48.114;11.532;2024-02-23T12:13:58;93742.00;;;13.80
15680;BMP180;15488;48.114;11.532;2024-02-23T12:16:26;93754.00;;;13.80
15680;BMP180;15488;48.114;11.532;2024-02-23T12:18:54;93755.00;;;13.70
15680;BMP180;15488;48.114;11.532;2024-02-23T12:21:24;93754.00;;;13.70
15680;BMP180;15488;48.114;11.532;2024-02-23T12:23:53;93750.00;;;13.70
15680;BMP180;15488;48.114;11.532;2024-02-23T12:26:21;93741.00;;;13.70
15680;BMP180;15488;48.114;11.532;2024-02-23T12:28:49;93734.00;;;13.70
15680;BMP180;15488;48.114;11.532;2024-02-23T12:31:24;93715.00;;;13.60
15680;BMP180;15488;48.114;11.532;2024-02-23T12:33:53;93718.00;;;13.70
15680;BMP180;15488;48.114;11.532;2024-02-23T12:36:22;93717.00;;;13.70
15680;BMP180;15488;48.114;11.532;2024-02-23T12:38:52;93723.00;;;13.70
15680;BMP180;15488;48.114;11.532;2024-02-23T12:41:20;93715.00;;;13.70
15680;BMP180;15488;48.114;11.532;2024-02-23T12:43:49;93725.00;;;13.70
15680;BMP180;15488;48.114;11.532;2024-02-23T12:46:18;93726.00;;;13.70
15680;BMP180;15488;48.114;11.532;2024-02-23T12:48:46;93723.00;;;13.70
15680;BMP180;15488;48.114;11.532;2024-02-23T12:51:14;93736.00;;;13.60
15680;BMP180;15488;48.114;11.532;2024-02-23T12:53:43;93735.00;;;13.60
15680;BMP180;15488;48.114;11.532;2024-02-23T12:56:13;93718.00;;;13.60
15680;BMP180;15488;48.114;11.532;2024-02-23T12:58:43;93708.00;;;13.60
15680;BMP180;15488;48.114;11.532;2024-02-23T13:01:11;93695.00;;;13.60
15680;BMP180;15488;48.114;11.532;2024-02-23T13:03:40;93692.00;;;13.60
15680;BMP180;15488;48.114;11.532;2024-02-23T13:06:08;93692.00;;;13.60
15680;BMP180;15488;48.114;11.532;2024-02-23T13:08:35;93708.00;;;13.60
15680;BMP180;15488;48.114;11.532;2024-02-23T13:11:05;93714.00;;;13.60
15680;BMP180;15488;48.114;11.532;2024-02-23T13:13:34;93702.00;;;13.60
15680;BMP180;15488;48.114;11.532;2024-02-23T13:16:01;93702.00;;;13.50
15680;BMP180;15488;48.114;11.532;2024-02-23T13:18:29;93718.00;;;13.60
15680;BMP180;15488;48.114;11.532;2024-02-23T13:20:56;93740.00;;;13.60
15680;BMP180;15488;48.114;11.532;2024-02-23T13:23:24;93737.00;;;13.60
15680;BMP180;15488;48.114;11.532;2024-02-23T13:25:51;93737.00;;;13.60
15680;BMP180;15488;48.114;11.532;2024-02-23T13:28:19;93741.00;;;13.60
15680;BMP180;15488;48.114;11.532;2024-02-23T13:30:48;93746.00;;;13.70
15680;BMP180;15488;48.114;11.532;2024-02-23T13:33:16;93739.00;;;13.70
15680;BMP180;15488;48.114;11.532;2024-02-23T13:35:45;93735.00;;;13.70
15680;BMP180;15488;48.114;11.532;2024-02-23T13:38:13;93725.00;;;13.80
15680;BMP180;15488;48.114;11.532;2024-02-23T13:40:40;93719.00;;;13.80
15680;BMP180;15488;48.114;11.532;2024-02-23T13:43:08;93721.00;;;13.80
15680;BMP180;15488;48.114;11.532;2024-02-23T13:45:50;93713.00;;;13.80
15680;BMP180;15488;48.114;11.532;2024-02-23T13:48:18;93700.00;;;13.80
15680;BMP180;15488;48.114;11.532;2024-02-23T13:50:47;93740.00;;;13.80
15680;BMP180;15488;48.114;11.532;2024-02-23T13:53:14;93754.00;;;13.30
15680;BMP180;15488;48.114;11.532;2024-02-23T13:55:42;93721.00;;;13.90
15680;BMP180;15488;48.114;11.532;2024-02-23T13:58:10;93714.00;;;13.90
15680;BMP180;15488;48.114;11.532;2024-02-23T14:00:38;93694.00;;;13.90
15680;BMP180;15488;48.114;11.532;2024-02-23T14:03:07;93671.00;;;13.80